sensor_id;sensor_type;location;lat;lon;timestamp;temperature;humidity
11764;DHT22;5939;56.522;14.950;2022-12-29T00:01:55;6.00;99.90
11764;DHT22;5939;56.522;14.950;2022-12-29T00:04:21;6.00;99.90
11764;DHT22;5939;56.522;14.950;2022-12-29T00:06:47;6.00;99.90
11764;DHT22;5939;56.522;14.950;2022-12-29T00:09:15;6.00;99.90
11764;DHT22;5939;56.522;14.950;2022-12-29T00:11:42;6.00;99.90
11764;DHT22;5939;56.522;14.950;2022-12-29T00:14:12;6.00;99.90
11764;DHT22;5939;56.522;14.950;2022-12-29T00:16:56;6.00;99.90
11764;DHT22;5939;56.522;14.950;2022-12-29T00:19:23;6.00;99.90
11764;DHT22;5939;56.522;14.950;2022-12-29T00:22:12;6.00;99.90
11764;DHT22;5939;56.522;14.950;2022-12-29T00:24:56;6.00;99.90
11764;DHT22;5939;56.522;14.950;2022-12-29T00:27:34;6.00;99.90
11764;DHT22;5939;56.522;14.950;2022-12-29T00:30:23;6.00;99.90
11764;DHT22;5939;56.522;14.950;2022-12-29T00:33:19;6.00;99.90
11764;DHT22;5939;56.522;14.950;2022-12-29T00:36:11;6.00;99.90
11764;DHT22;5939;56.522;14.950;2022-12-29T00:38:42;6.00;99.90
11764;DHT22;5939;56.522;14.950;2022-12-29T00:41:27;6.00;99.90
11764;DHT22;5939;56.522;14.950;2022-12-29T00:44:13;6.00;99.90
11764;DHT22;5939;56.522;14.950;2022-12-29T00:46:40;6.00;99.90
11764;DHT22;5939;56.522;14.950;2022-12-29T00:49:08;6.00;99.90
11764;DHT22;5939;56.522;14.950;2022-12-29T00:51:55;6.00;99.90
11764;DHT22;5939;56.522;14.950;2022-12-29T00:54:22;6.00;99.90
11764;DHT22;5939;56.522;14.950;2022-12-29T00:56:48;6.00;99.90
11764;DHT22;5939;56.522;14.950;2022-12-29T00:59:15;6.00;99.90
11764;DHT22;5939;56.522;14.950;2022-12-29T01:01:41;6.10;99.90
11764;DHT22;5939;56.522;14.950;2022-12-29T01:04:08;6.00;99.90
11764;DHT22;5939;56.522;14.950;2022-12-29T01:06:35;6.00;99.90
11764;DHT22;5939;56.522;14.950;2022-12-29T01:09:02;6.00;99.90
11764;DHT22;5939;56.522;14.950;2022-12-29T01:11:46;6.00;99.90
11764;DHT22;5939;56.522;14.950;2022-12-29T01:14:12;6.10;99.90
11764;DHT22;5939;56.522;14.950;2022-12-29T01:16:37;6.10;99.90
11764;DHT22;5939;56.522;14.950;2022-12-29T01:19:04;6.10;99.90
11764;DHT22;5939;56.522;14.950;2022-12-29T01:21:30;6.10;99.90
11764;DHT22;5939;56.522;14.950;2022-12-29T01:23:55;6.00;99.90
11764;DHT22;5939;56.522;14.950;2022-12-29T01:26:21;6.10;99.90
11764;DHT22;5939;56.522;14.950;2022-12-29T01:28:47;6.10;99.90
11764;DHT22;5939;56.522;14.950;2022-12-29T01:31:14;6.10;99.90
11764;DHT22;5939;56.522;14.950;2022-12-29T01:33:40;6.10;99.90
11764;DHT22;5939;56.522;14.950;2022-12-29T01:36:08;6.10;99.90
11764;DHT22;5939;56.522;14.950;2022-12-29T01:38:35;6.10;99.90
11764;DHT22;5939;56.522;14.950;2022-12-29T01:41:02;6.10;99.90
11764;DHT22;5939;56.522;14.950;2022-12-29T01:43:48;6.20;99.90
11764;DHT22;5939;56.522;14.950;2022-12-29T01:46:22;6.10;99.90
11764;DHT22;5939;56.522;14.950;2022-12-29T01:48:59;6.10;99.90
11764;DHT22;5939;56.522;14.950;2022-12-29T01:51:28;6.00;99.90
11764;DHT22;5939;56.522;14.950;2022-12-29T01:53:57;6.10;99.90
11764;DHT22;5939;56.522;14.950;2022-12-29T01:56:24;6.10;99.90
11764;DHT22;5939;56.522;14.950;2022-12-29T01:58:56;6.10;99.90
11764;DHT22;5939;56.522;14.950;2022-12-29T02:01:24;6.10;99.90
11764;DHT22;5939;56.522;14.950;2022-12-29T02:03:51;6.10;99.90
11764;DHT22;5939;56.522;14.950;2022-12-29T02:06:36;6.20;99.90
11764;DHT22;5939;56.522;14.950;2022-12-29T02:09:03;6.10;99.90
11764;DHT22;5939;56.522;14.950;2022-12-29T02:11:29;6.20;99.90
11764;DHT22;5939;56.522;14.950;2022-12-29T02:13:56;6.10;99.90
11764;DHT22;5939;56.522;14.950;2022-12-29T02:16:39;6.10;99.90
11764;DHT22;5939;56.522;14.950;2022-12-29T02:27:49;6.20;99.90
11764;DHT22;5939;56.522;14.950;2022-12-29T02:35:58;6.20;99.90
11764;DHT22;5939;56.522;14.950;2022-12-29T02:46:21;6.20;99.90
11764;DHT22;5939;56.522;14.950;2022-12-29T02:51:41;6.20;99.90
11764;DHT22;5939;56.522;14.950;2022-12-29T02:54:08;6.20;99.90
11764;DHT22;5939;56.522;14.950;2022-12-29T02:57:26;6.20;99.90
11764;DHT22;5939;56.522;14.950;2022-12-29T03:00:11;6.20;99.90
11764;DHT22;5939;56.522;14.950;2022-12-29T03:05:30;6.20;99.90
11764;DHT22;5939;56.522;14.950;2022-12-29T03:08:35;6.20;99.90
11764;DHT22;5939;56.522;14.950;2022-12-29T03:11:12;6.20;99.90
11764;DHT22;5939;56.522;14.950;2022-12-29T03:14:06;6.20;99.90
11764;DHT22;5939;56.522;14.950;2022-12-29T03:17:38;6.30;99.90
11764;DHT22;5939;56.522;14.950;2022-12-29T03:19:49;6.20;99.90
11764;DHT22;5939;56.522;14.950;2022-12-29T03:22:22;6.20;99.90
11764;DHT22;5939;56.522;14.950;2022-12-29T03:25:09;6.20;99.90
11764;DHT22;5939;56.522;14.950;2022-12-29T03:27:41;6.30;99.90
11764;DHT22;5939;56.522;14.950;2022-12-29T03:30:09;6.30;99.90
11764;DHT22;5939;56.522;14.950;2022-12-29T03:32:40;6.20;99.90
11764;DHT22;5939;56.522;14.950;2022-12-29T03:35:09;6.20;99.90
11764;DHT22;5939;56.522;14.950;2022-12-29T03:37:41;6.20;99.90
11764;DHT22;5939;56.522;14.950;2022-12-29T03:40:08;6.70;99.90
11764;DHT22;5939;56.522;14.950;2022-12-29T03:42:36;6.30;99.90
11764;DHT22;5939;56.522;14.950;2022-12-29T03:45:04;6.30;99.90
11764;DHT22;5939;56.522;14.950;2022-12-29T03:47:31;6.30;99.90
11764;DHT22;5939;56.522;14.950;2022-12-29T03:49:57;6.30;99.90
11764;DHT22;5939;56.522;14.950;2022-12-29T03:52:23;6.30;99.90
11764;DHT22;5939;56.522;14.950;2022-12-29T03:54:48;6.30;99.90
11764;DHT22;5939;56.522;14.950;2022-12-29T03:57:14;6.30;99.90
11764;DHT22;5939;56.522;14.950;2022-12-29T03:59:40;6.30;99.90
11764;DHT22;5939;56.522;14.950;2022-12-29T04:02:05;6.40;99.90
11764;DHT22;5939;56.522;14.950;2022-12-29T04:04:31;6.30;99.90
11764;DHT22;5939;56.522;14.950;2022-12-29T04:06:57;6.30;99.90
11764;DHT22;5939;56.522;14.950;2022-12-29T04:09:22;6.30;99.90
11764;DHT22;5939;56.522;14.950;2022-12-29T04:11:48;6.40;99.90
11764;DHT22;5939;56.522;14.950;2022-12-29T04:14:13;6.30;99.90
11764;DHT22;5939;56.522;14.950;2022-12-29T04:16:39;6.40;99.90
11764;DHT22;5939;56.522;14.950;2022-12-29T04:19:06;6.40;99.90
11764;DHT22;5939;56.522;14.950;2022-12-29T04:21:32;6.40;99.90
11764;DHT22;5939;56.522;14.950;2022-12-29T04:23:58;6.30;99.90
11764;DHT22;5939;56.522;14.950;2022-12-29T04:26:24;6.40;99.90
11764;DHT22;5939;56.522;14.950;2022-12-29T04:28:49;6.50;99.90
11764;DHT22;5939;56.522;14.950;2022-12-29T04:31:15;6.40;99.90
11764;DHT22;5939;56.522;14.950;2022-12-29T04:33:41;6.40;99.90
11764;DHT22;5939;56.522;14.950;2022-12-29T04:36:06;6.40;99.90
11764;DHT22;5939;56.522;14.950;2022-12-29T04:38:32;6.40;99.90
11764;DHT22;5939;56.522;14.950;2022-12-29T04:41:01;6.40;99.90
11764;DHT22;5939;56.522;14.950;2022-12-29T04:43:27;6.40;99.90
11764;DHT22;5939;56.522;14.950;2022-12-29T04:45:53;6.40;99.90
11764;DHT22;5939;56.522;14.950;2022-12-29T04:48:19;6.40;99.90
11764;DHT22;5939;56.522;14.950;2022-12-29T04:50:48;6.40;99.90
11764;DHT22;5939;56.522;14.950;2022-12-29T04:53:15;6.40;99.90
11764;DHT22;5939;56.522;14.950;2022-12-29T04:55:41;6.60;99.90
11764;DHT22;5939;56.522;14.950;2022-12-29T04:58:06;6.50;99.90
11764;DHT22;5939;56.522;14.950;2022-12-29T05:00:32;6.50;99.90
11764;DHT22;5939;56.522;14.950;2022-12-29T05:02:58;6.40;99.90
11764;DHT22;5939;56.522;14.950;2022-12-29T05:05:24;6.50;99.90
11764;DHT22;5939;56.522;14.950;2022-12-29T05:07:50;6.50;99.90
11764;DHT22;5939;56.522;14.950;2022-12-29T05:10:16;6.50;99.90
11764;DHT22;5939;56.522;14.950;2022-12-29T05:12:42;6.50;99.90
11764;DHT22;5939;56.522;14.950;2022-12-29T05:15:09;6.40;99.90
11764;DHT22;5939;56.522;14.950;2022-12-29T05:17:35;6.40;99.90
11764;DHT22;5939;56.522;14.950;2022-12-29T05:20:01;6.50;99.90
11764;DHT22;5939;56.522;14.950;2022-12-29T05:22:27;6.50;99.90
11764;DHT22;5939;56.522;14.950;2022-12-29T05:24:52;6.50;99.90
11764;DHT22;5939;56.522;14.950;2022-12-29T05:27:18;6.70;99.90
11764;DHT22;5939;56.522;14.950;2022-12-29T05:29:44;6.50;99.90
11764;DHT22;5939;56.522;14.950;2022-12-29T05:32:09;6.50;99.90
11764;DHT22;5939;56.522;14.950;2022-12-29T05:34:35;6.50;99.90
11764;DHT22;5939;56.522;14.950;2022-12-29T05:37:01;6.50;99.90
11764;DHT22;5939;56.522;14.950;2022-12-29T05:39:28;6.50;99.90
11764;DHT22;5939;56.522;14.950;2022-12-29T05:41:54;6.50;99.90
11764;DHT22;5939;56.522;14.950;2022-12-29T05:44:19;6.50;99.90
11764;DHT22;5939;56.522;14.950;2022-12-29T05:46:45;6.50;99.90
11764;DHT22;5939;56.522;14.950;2022-12-29T05:49:11;6.50;99.90
11764;DHT22;5939;56.522;14.950;2022-12-29T05:51:37;6.50;99.90
11764;DHT22;5939;56.522;14.950;2022-12-29T05:54:02;6.50;99.90
11764;DHT22;5939;56.522;14.950;2022-12-29T05:56:28;6.50;99.90
11764;DHT22;5939;56.522;14.950;2022-12-29T05:58:54;6.50;99.90
11764;DHT22;5939;56.522;14.950;2022-12-29T06:01:19;6.50;99.90
11764;DHT22;5939;56.522;14.950;2022-12-29T06:03:45;6.60;99.90
11764;DHT22;5939;56.522;14.950;2022-12-29T06:06:11;6.50;99.90
11764;DHT22;5939;56.522;14.950;2022-12-29T06:08:36;6.50;99.90
11764;DHT22;5939;56.522;14.950;2022-12-29T06:11:02;6.80;99.90
11764;DHT22;5939;56.522;14.950;2022-12-29T06:13:28;6.50;99.90
11764;DHT22;5939;56.522;14.950;2022-12-29T06:15:54;6.50;99.90
11764;DHT22;5939;56.522;14.950;2022-12-29T06:18:19;6.50;99.90
11764;DHT22;5939;56.522;14.950;2022-12-29T06:20:45;6.50;99.90
11764;DHT22;5939;56.522;14.950;2022-12-29T06:23:11;6.50;99.90
11764;DHT22;5939;56.522;14.950;2022-12-29T06:25:40;6.50;99.90
11764;DHT22;5939;56.522;14.950;2022-12-29T06:28:05;6.60;99.90
11764;DHT22;5939;56.522;14.950;2022-12-29T06:30:32;6.60;99.90
11764;DHT22;5939;56.522;14.950;2022-12-29T06:33:00;6.50;99.90
11764;DHT22;5939;56.522;14.950;2022-12-29T06:35:26;6.70;99.90
11764;DHT22;5939;56.522;14.950;2022-12-29T06:37:51;6.50;99.90
11764;DHT22;5939;56.522;14.950;2022-12-29T06:40:17;6.60;99.90
11764;DHT22;5939;56.522;14.950;2022-12-29T06:42:43;6.60;99.90
11764;DHT22;5939;56.522;14.950;2022-12-29T06:45:09;6.50;99.90
11764;DHT22;5939;56.522;14.950;2022-12-29T06:47:35;6.50;99.90
11764;DHT22;5939;56.522;14.950;2022-12-29T06:50:01;6.50;99.90
11764;DHT22;5939;56.522;14.950;2022-12-29T06:52:27;6.60;99.90
11764;DHT22;5939;56.522;14.950;2022-12-29T06:54:54;6.60;99.90
11764;DHT22;5939;56.522;14.950;2022-12-29T06:57:20;6.60;99.90
11764;DHT22;5939;56.522;14.950;2022-12-29T06:59:45;6.60;99.90
11764;DHT22;5939;56.522;14.950;2022-12-29T07:02:11;6.60;99.90
11764;DHT22;5939;56.522;14.950;2022-12-29T07:04:38;6.60;99.90
11764;DHT22;5939;56.522;14.950;2022-12-29T07:07:04;6.60;99.90
11764;DHT22;5939;56.522;14.950;2022-12-29T07:09:29;6.60;99.90
11764;DHT22;5939;56.522;14.950;2022-12-29T07:11:55;6.50;99.90
11764;DHT22;5939;56.522;14.950;2022-12-29T07:14:21;6.60;99.90
11764;DHT22;5939;56.522;14.950;2022-12-29T07:16:46;6.50;99.90
11764;DHT22;5939;56.522;14.950;2022-12-29T07:19:12;6.60;99.90
11764;DHT22;5939;56.522;14.950;2022-12-29T07:21:37;6.60;99.90
11764;DHT22;5939;56.522;14.950;2022-12-29T07:24:03;6.60;99.90
11764;DHT22;5939;56.522;14.950;2022-12-29T07:26:29;6.60;99.90
11764;DHT22;5939;56.522;14.950;2022-12-29T07:28:55;6.60;99.90
11764;DHT22;5939;56.522;14.950;2022-12-29T07:31:23;6.70;99.90
11764;DHT22;5939;56.522;14.950;2022-12-29T07:33:49;6.60;99.90
11764;DHT22;5939;56.522;14.950;2022-12-29T07:36:15;6.60;99.90
11764;DHT22;5939;56.522;14.950;2022-12-29T07:38:42;6.60;99.90
11764;DHT22;5939;56.522;14.950;2022-12-29T07:41:07;6.60;99.90
11764;DHT22;5939;56.522;14.950;2022-12-29T07:43:34;6.60;99.90
11764;DHT22;5939;56.522;14.950;2022-12-29T07:45:59;6.60;99.90
11764;DHT22;5939;56.522;14.950;2022-12-29T07:48:25;6.60;99.90
11764;DHT22;5939;56.522;14.950;2022-12-29T07:50:51;6.60;99.90
11764;DHT22;5939;56.522;14.950;2022-12-29T07:53:17;6.60;99.90
11764;DHT22;5939;56.522;14.950;2022-12-29T07:55:42;6.60;99.90
11764;DHT22;5939;56.522;14.950;2022-12-29T07:58:08;7.00;99.90
11764;DHT22;5939;56.522;14.950;2022-12-29T08:00:34;6.70;99.90
11764;DHT22;5939;56.522;14.950;2022-12-29T08:02:59;6.60;99.90
11764;DHT22;5939;56.522;14.950;2022-12-29T08:05:25;6.70;99.90
11764;DHT22;5939;56.522;14.950;2022-12-29T08:07:51;6.60;99.90
11764;DHT22;5939;56.522;14.950;2022-12-29T08:10:17;6.70;99.90
11764;DHT22;5939;56.522;14.950;2022-12-29T08:12:43;6.60;99.90
11764;DHT22;5939;56.522;14.950;2022-12-29T08:15:10;6.70;99.90
11764;DHT22;5939;56.522;14.950;2022-12-29T08:17:36;6.70;99.90
11764;DHT22;5939;56.522;14.950;2022-12-29T08:20:03;6.70;99.90
11764;DHT22;5939;56.522;14.950;2022-12-29T08:22:29;6.70;99.90
11764;DHT22;5939;56.522;14.950;2022-12-29T08:24:54;6.70;99.90
11764;DHT22;5939;56.522;14.950;2022-12-29T08:27:20;6.70;99.90
11764;DHT22;5939;56.522;14.950;2022-12-29T08:29:45;6.70;99.90
11764;DHT22;5939;56.522;14.950;2022-12-29T08:32:11;6.70;99.90
11764;DHT22;5939;56.522;14.950;2022-12-29T08:34:37;6.70;99.90
11764;DHT22;5939;56.522;14.950;2022-12-29T08:37:03;6.70;99.90
11764;DHT22;5939;56.522;14.950;2022-12-29T08:39:28;7.00;99.90
11764;DHT22;5939;56.522;14.950;2022-12-29T08:41:54;6.80;99.90
11764;DHT22;5939;56.522;14.950;2022-12-29T08:44:20;6.70;99.90
11764;DHT22;5939;56.522;14.950;2022-12-29T08:46:46;6.70;99.90
11764;DHT22;5939;56.522;14.950;2022-12-29T08:49:11;6.80;99.90
11764;DHT22;5939;56.522;14.950;2022-12-29T08:51:38;6.80;99.90
11764;DHT22;5939;56.522;14.950;2022-12-29T08:54:03;6.80;99.90
11764;DHT22;5939;56.522;14.950;2022-12-29T08:56:29;6.80;99.90
11764;DHT22;5939;56.522;14.950;2022-12-29T08:58:55;6.80;99.90
11764;DHT22;5939;56.522;14.950;2022-12-29T09:01:20;6.80;99.90
11764;DHT22;5939;56.522;14.950;2022-12-29T09:03:46;6.90;99.90
11764;DHT22;5939;56.522;14.950;2022-12-29T09:06:12;7.00;99.90
11764;DHT22;5939;56.522;14.950;2022-12-29T09:08:38;7.00;99.90
11764;DHT22;5939;56.522;14.950;2022-12-29T09:13:38;7.10;99.90
11764;DHT22;5939;56.522;14.950;2022-12-29T09:16:04;6.90;99.90
11764;DHT22;5939;56.522;14.950;2022-12-29T09:18:30;6.90;99.90
11764;DHT22;5939;56.522;14.950;2022-12-29T09:20:57;7.00;99.90
11764;DHT22;5939;56.522;14.950;2022-12-29T09:23:23;6.90;99.90
11764;DHT22;5939;56.522;14.950;2022-12-29T09:25:49;6.90;99.90
11764;DHT22;5939;56.522;14.950;2022-12-29T09:28:15;6.90;99.90
11764;DHT22;5939;56.522;14.950;2022-12-29T09:30:41;7.00;99.90
11764;DHT22;5939;56.522;14.950;2022-12-29T09:33:07;7.00;99.90
11764;DHT22;5939;56.522;14.950;2022-12-29T09:35:33;7.00;99.90
11764;DHT22;5939;56.522;14.950;2022-12-29T09:37:58;7.00;99.90
11764;DHT22;5939;56.522;14.950;2022-12-29T09:40:30;7.10;99.90
11764;DHT22;5939;56.522;14.950;2022-12-29T09:51:44;7.10;99.90
11764;DHT22;5939;56.522;14.950;2022-12-29T10:02:39;7.20;99.90
11764;DHT22;5939;56.522;14.950;2022-12-29T10:05:18;7.20;99.90
11764;DHT22;5939;56.522;14.950;2022-12-29T10:07:50;7.20;99.90
11764;DHT22;5939;56.522;14.950;2022-12-29T10:10:28;7.20;99.90
11764;DHT22;5939;56.522;14.950;2022-12-29T10:23:45;7.30;99.90
11764;DHT22;5939;56.522;14.950;2022-12-29T10:26:16;7.30;99.90
11764;DHT22;5939;56.522;14.950;2022-12-29T10:28:55;7.30;99.90
11764;DHT22;5939;56.522;14.950;2022-12-29T10:31:24;7.30;99.90
11764;DHT22;5939;56.522;14.950;2022-12-29T10:34:10;7.40;99.90
11764;DHT22;5939;56.522;14.950;2022-12-29T10:36:43;7.40;99.90
11764;DHT22;5939;56.522;14.950;2022-12-29T10:39:23;7.40;99.90
11764;DHT22;5939;56.522;14.950;2022-12-29T10:42:11;7.40;99.90
11764;DHT22;5939;56.522;14.950;2022-12-29T10:44:39;7.50;99.90
11764;DHT22;5939;56.522;14.950;2022-12-29T10:47:09;7.50;99.90
11764;DHT22;5939;56.522;14.950;2022-12-29T10:49:40;7.50;99.90
11764;DHT22;5939;56.522;14.950;2022-12-29T10:52:07;7.50;99.90
11764;DHT22;5939;56.522;14.950;2022-12-29T10:54:55;7.50;99.90
11764;DHT22;5939;56.522;14.950;2022-12-29T10:59:54;7.50;99.90
11764;DHT22;5939;56.522;14.950;2022-12-29T11:05:20;7.60;99.90
11764;DHT22;5939;56.522;14.950;2022-12-29T11:07:50;7.60;99.90
11764;DHT22;5939;56.522;14.950;2022-12-29T11:10:34;7.60;99.90
11764;DHT22;5939;56.522;14.950;2022-12-29T11:13:12;7.60;99.90
11764;DHT22;5939;56.522;14.950;2022-12-29T11:15:43;7.60;99.90
11764;DHT22;5939;56.522;14.950;2022-12-29T11:18:33;7.60;99.90
11764;DHT22;5939;56.522;14.950;2022-12-29T11:21:03;7.60;99.90
11764;DHT22;5939;56.522;14.950;2022-12-29T11:23:38;7.60;99.90
11764;DHT22;5939;56.522;14.950;2022-12-29T11:26:17;7.60;99.90
11764;DHT22;5939;56.522;14.950;2022-12-29T11:28:46;7.70;99.90
11764;DHT22;5939;56.522;14.950;2022-12-29T11:31:16;7.70;99.90
11764;DHT22;5939;56.522;14.950;2022-12-29T11:33:42;7.70;99.90
11764;DHT22;5939;56.522;14.950;2022-12-29T11:36:11;7.70;99.90
11764;DHT22;5939;56.522;14.950;2022-12-29T11:38:41;7.70;99.90
11764;DHT22;5939;56.522;14.950;2022-12-29T11:41:11;7.70;99.90
11764;DHT22;5939;56.522;14.950;2022-12-29T11:43:40;7.70;99.90
11764;DHT22;5939;56.522;14.950;2022-12-29T11:46:07;7.80;99.90
11764;DHT22;5939;56.522;14.950;2022-12-29T11:48:39;7.80;99.90
11764;DHT22;5939;56.522;14.950;2022-12-29T11:51:06;7.80;99.90
11764;DHT22;5939;56.522;14.950;2022-12-29T11:53:39;7.80;99.90
11764;DHT22;5939;56.522;14.950;2022-12-29T11:56:16;7.80;99.90
11764;DHT22;5939;56.522;14.950;2022-12-29T11:58:42;7.80;99.90
11764;DHT22;5939;56.522;14.950;2022-12-29T12:04:12;7.90;99.90
11764;DHT22;5939;56.522;14.950;2022-12-29T12:07:11;7.90;99.90
11764;DHT22;5939;56.522;14.950;2022-12-29T12:10:34;7.90;99.90
11764;DHT22;5939;56.522;14.950;2022-12-29T12:15:22;7.90;99.90
11764;DHT22;5939;56.522;14.950;2022-12-29T12:18:08;7.90;99.90
11764;DHT22;5939;56.522;14.950;2022-12-29T12:20:54;7.90;99.90
11764;DHT22;5939;56.522;14.950;2022-12-29T12:26:09;7.90;99.90
11764;DHT22;5939;56.522;14.950;2022-12-29T12:28:54;8.00;99.90
11764;DHT22;5939;56.522;14.950;2022-12-29T12:31:25;8.00;99.90
11764;DHT22;5939;56.522;14.950;2022-12-29T12:34:01;8.00;99.90
11764;DHT22;5939;56.522;14.950;2022-12-29T12:39:06;8.00;99.90
11764;DHT22;5939;56.522;14.950;2022-12-29T12:50:32;8.00;99.90
11764;DHT22;5939;56.522;14.950;2022-12-29T13:06:43;8.10;99.90
11764;DHT22;5939;56.522;14.950;2022-12-29T13:09:38;8.10;99.90
11764;DHT22;5939;56.522;14.950;2022-12-29T13:12:29;8.10;99.90
11764;DHT22;5939;56.522;14.950;2022-12-29T13:15:43;8.10;99.90
11764;DHT22;5939;56.522;14.950;2022-12-29T13:18:12;8.20;99.90
11764;DHT22;5939;56.522;14.950;2022-12-29T13:21:18;8.20;99.90
11764;DHT22;5939;56.522;14.950;2022-12-29T13:34:34;8.20;99.90
11764;DHT22;5939;56.522;14.950;2022-12-29T13:37:07;8.20;99.90
11764;DHT22;5939;56.522;14.950;2022-12-29T13:39:38;8.20;99.90
11764;DHT22;5939;56.522;14.950;2022-12-29T13:42:05;8.20;99.90
11764;DHT22;5939;56.522;14.950;2022-12-29T13:44:37;8.20;99.90
11764;DHT22;5939;56.522;14.950;2022-12-29T13:47:29;8.30;99.90
11764;DHT22;5939;56.522;14.950;2022-12-29T13:49:58;8.20;99.90
11764;DHT22;5939;56.522;14.950;2022-12-29T13:55:44;8.30;99.90
11764;DHT22;5939;56.522;14.950;2022-12-29T14:00:56;8.30;99.90
11764;DHT22;5939;56.522;14.950;2022-12-29T14:03:48;8.30;99.90
11764;DHT22;5939;56.522;14.950;2022-12-29T14:09:02;8.30;99.90
11764;DHT22;5939;56.522;14.950;2022-12-29T14:11:39;8.20;99.90
11764;DHT22;5939;56.522;14.950;2022-12-29T14:14:21;8.30;99.90
11764;DHT22;5939;56.522;14.950;2022-12-29T14:16:48;8.30;99.90
11764;DHT22;5939;56.522;14.950;2022-12-29T14:21:51;8.30;99.90
11764;DHT22;5939;56.522;14.950;2022-12-29T14:24:42;8.30;99.90
11764;DHT22;5939;56.522;14.950;2022-12-29T14:34:56;8.30;99.90
11764;DHT22;5939;56.522;14.950;2022-12-29T14:40:03;8.30;99.90
11764;DHT22;5939;56.522;14.950;2022-12-29T14:42:30;8.30;99.90
11764;DHT22;5939;56.522;14.950;2022-12-29T14:45:05;8.30;99.90
11764;DHT22;5939;56.522;14.950;2022-12-29T14:50:22;8.30;99.90
11764;DHT22;5939;56.522;14.950;2022-12-29T14:53:00;8.30;99.90
11764;DHT22;5939;56.522;14.950;2022-12-29T14:58:26;8.20;99.90
11764;DHT22;5939;56.522;14.950;2022-12-29T15:00:53;8.30;99.90
11764;DHT22;5939;56.522;14.950;2022-12-29T15:03:21;8.30;99.90
11764;DHT22;5939;56.522;14.950;2022-12-29T15:06:08;8.30;99.90
11764;DHT22;5939;56.522;14.950;2022-12-29T15:14:02;8.30;99.90
11764;DHT22;5939;56.522;14.950;2022-12-29T15:16:32;8.30;99.90
11764;DHT22;5939;56.522;14.950;2022-12-29T15:18:59;8.30;99.90
11764;DHT22;5939;56.522;14.950;2022-12-29T15:21:35;8.30;99.90
11764;DHT22;5939;56.522;14.950;2022-12-29T15:24:02;8.20;99.90
11764;DHT22;5939;56.522;14.950;2022-12-29T15:26:45;8.20;99.90
11764;DHT22;5939;56.522;14.950;2022-12-29T15:29:32;8.20;99.90
11764;DHT22;5939;56.522;14.950;2022-12-29T15:32:00;8.20;99.90
11764;DHT22;5939;56.522;14.950;2022-12-29T15:34:29;8.20;99.90
11764;DHT22;5939;56.522;14.950;2022-12-29T15:36:55;8.20;99.90
11764;DHT22;5939;56.522;14.950;2022-12-29T15:39:28;8.20;99.90
11764;DHT22;5939;56.522;14.950;2022-12-29T15:41:57;8.20;99.90
11764;DHT22;5939;56.522;14.950;2022-12-29T15:44:44;8.20;99.90
11764;DHT22;5939;56.522;14.950;2022-12-29T15:47:17;8.20;99.90
11764;DHT22;5939;56.522;14.950;2022-12-29T15:49:47;8.20;99.90
11764;DHT22;5939;56.522;14.950;2022-12-29T15:52:18;8.20;99.90
11764;DHT22;5939;56.522;14.950;2022-12-29T15:54:45;8.20;99.90
11764;DHT22;5939;56.522;14.950;2022-12-29T15:57:24;8.10;99.90
11764;DHT22;5939;56.522;14.950;2022-12-29T15:59:50;8.10;99.90
11764;DHT22;5939;56.522;14.950;2022-12-29T16:02:16;8.10;99.90
11764;DHT22;5939;56.522;14.950;2022-12-29T16:04:43;8.10;99.90
11764;DHT22;5939;56.522;14.950;2022-12-29T16:09:55;8.10;99.90
11764;DHT22;5939;56.522;14.950;2022-12-29T16:12:24;8.10;99.90
11764;DHT22;5939;56.522;14.950;2022-12-29T16:14:57;8.10;99.90
11764;DHT22;5939;56.522;14.950;2022-12-29T16:17:29;8.10;99.90
11764;DHT22;5939;56.522;14.950;2022-12-29T16:20:02;8.10;99.90
11764;DHT22;5939;56.522;14.950;2022-12-29T16:22:34;8.10;99.90
11764;DHT22;5939;56.522;14.950;2022-12-29T16:25:10;8.10;99.90
11764;DHT22;5939;56.522;14.950;2022-12-29T16:27:41;8.10;99.90
11764;DHT22;5939;56.522;14.950;2022-12-29T16:30:23;8.10;99.90
11764;DHT22;5939;56.522;14.950;2022-12-29T16:32:52;8.10;99.90
11764;DHT22;5939;56.522;14.950;2022-12-29T16:38:15;8.10;99.90
11764;DHT22;5939;56.522;14.950;2022-12-29T16:41:00;8.10;99.90
11764;DHT22;5939;56.522;14.950;2022-12-29T16:43:31;8.10;99.90
11764;DHT22;5939;56.522;14.950;2022-12-29T16:48:30;8.10;99.90
11764;DHT22;5939;56.522;14.950;2022-12-29T16:51:03;8.10;99.90
11764;DHT22;5939;56.522;14.950;2022-12-29T16:53:38;8.00;99.90
11764;DHT22;5939;56.522;14.950;2022-12-29T16:56:26;8.00;99.90
11764;DHT22;5939;56.522;14.950;2022-12-29T17:01:58;8.00;99.90
11764;DHT22;5939;56.522;14.950;2022-12-29T17:04:24;8.00;99.90
11764;DHT22;5939;56.522;14.950;2022-12-29T17:06:50;8.10;99.90
11764;DHT22;5939;56.522;14.950;2022-12-29T17:09:24;8.00;99.90
11764;DHT22;5939;56.522;14.950;2022-12-29T17:11:59;8.00;99.90
11764;DHT22;5939;56.522;14.950;2022-12-29T17:16:57;8.00;99.90
11764;DHT22;5939;56.522;14.950;2022-12-29T17:19:33;8.00;99.90
11764;DHT22;5939;56.522;14.950;2022-12-29T17:22:00;8.00;99.90
11764;DHT22;5939;56.522;14.950;2022-12-29T17:24:26;8.00;99.90
11764;DHT22;5939;56.522;14.950;2022-12-29T17:26:56;8.00;99.90
11764;DHT22;5939;56.522;14.950;2022-12-29T17:29:36;8.00;99.90
11764;DHT22;5939;56.522;14.950;2022-12-29T17:32:04;8.00;99.90
11764;DHT22;5939;56.522;14.950;2022-12-29T17:34:31;8.00;99.90
11764;DHT22;5939;56.522;14.950;2022-12-29T17:36:57;8.00;99.90
11764;DHT22;5939;56.522;14.950;2022-12-29T17:39:23;8.00;99.90
11764;DHT22;5939;56.522;14.950;2022-12-29T17:41:48;8.00;99.90
11764;DHT22;5939;56.522;14.950;2022-12-29T17:44:19;8.00;99.90
11764;DHT22;5939;56.522;14.950;2022-12-29T17:46:46;8.00;99.90
11764;DHT22;5939;56.522;14.950;2022-12-29T17:49:16;8.00;99.90
11764;DHT22;5939;56.522;14.950;2022-12-29T17:51:44;8.00;99.90
11764;DHT22;5939;56.522;14.950;2022-12-29T17:54:24;8.00;99.90
11764;DHT22;5939;56.522;14.950;2022-12-29T17:56:50;8.00;99.90
11764;DHT22;5939;56.522;14.950;2022-12-29T17:59:17;8.00;99.90
11764;DHT22;5939;56.522;14.950;2022-12-29T18:01:44;8.00;99.90
11764;DHT22;5939;56.522;14.950;2022-12-29T18:04:15;8.10;99.90
11764;DHT22;5939;56.522;14.950;2022-12-29T18:06:41;8.00;99.90
11764;DHT22;5939;56.522;14.950;2022-12-29T18:09:07;8.00;99.90
11764;DHT22;5939;56.522;14.950;2022-12-29T18:11:37;8.00;99.90
11764;DHT22;5939;56.522;14.950;2022-12-29T18:14:03;8.00;99.90
11764;DHT22;5939;56.522;14.950;2022-12-29T18:16:28;8.00;99.90
11764;DHT22;5939;56.522;14.950;2022-12-29T18:18:54;8.00;99.90
11764;DHT22;5939;56.522;14.950;2022-12-29T18:21:21;8.00;99.90
11764;DHT22;5939;56.522;14.950;2022-12-29T18:23:48;8.10;99.90
11764;DHT22;5939;56.522;14.950;2022-12-29T18:26:20;8.00;99.90
11764;DHT22;5939;56.522;14.950;2022-12-29T18:28:46;8.00;99.90
11764;DHT22;5939;56.522;14.950;2022-12-29T18:31:22;8.00;99.90
11764;DHT22;5939;56.522;14.950;2022-12-29T18:33:49;8.00;99.90
11764;DHT22;5939;56.522;14.950;2022-12-29T18:36:16;8.00;99.90
11764;DHT22;5939;56.522;14.950;2022-12-29T18:38:42;7.90;99.90
11764;DHT22;5939;56.522;14.950;2022-12-29T18:41:24;8.00;99.90